Time,TemperatureF,DewpointF,PressureIn,WindDirection,WindDirectionDegrees,WindSpeedMPH,WindSpeedGustMPH,Humidity,HourlyPrecipIn,Conditions,Clouds,dailyrainin,SoftwareType,DateUTC
2013-09-13 00:02:00,62.3,51.6,29.85,NE,46,0.0,0.0,68,0.00,,,0.00,WeatherCatV1.21B27,2013-09-13 07:02:00,
2013-09-13 00:07:00,62.3,52.0,29.85,NE,46,0.0,0.0,69,0.00,,,0.00,WeatherCatV1.21B27,2013-09-13 07:07:00,
2013-09-13 00:12:00,62.3,52.0,29.85,NE,46,0.0,0.0,69,0.00,,,0.00,WeatherCatV1.21B27,2013-09-13 07:12:00,
2013-09-13 00:17:00,62.3,52.0,29.85,NE,46,0.0,0.0,69,0.00,,,0.00,WeatherCatV1.21B27,2013-09-13 07:17:00,
2013-09-13 00:22:00,62.4,54.0,29.85,NE,46,0.0,0.0,74,0.00,,,0.00,WeatherCatV1.21B27,2013-09-13 07:22:00,
2013-09-13 00:27:00,62.3,54.6,29.85,NE,46,0.0,0.0,76,0.00,,,0.00,WeatherCatV1.21B27,2013-09-13 07:27:00,
2013-09-13 00:32:00,62.3,55.7,29.84,NE,46,0.0,0.0,79,0.00,,,0.00,WeatherCatV1.21B27,2013-09-13 07:32:00,
2013-09-13 00:37:00,62.3,56.0,29.84,NE,46,0.0,0.0,80,0.00,,,0.00,WeatherCatV1.21B27,2013-09-13 07:37:00,
2013-09-13 00:42:00,62.2,56.0,29.84,NE,46,0.0,0.0,80,0.00,,,0.00,WeatherCatV1.21B27,2013-09-13 07:42:00,
2013-09-13 00:47:00,62.1,55.2,29.84,NE,46,0.0,0.0,78,0.00,,,0.00,WeatherCatV1.21B27,2013-09-13 07:47:00,
2013-09-13 00:52:00,62.1,55.5,29.84,NE,46,0.0,0.0,79,0.00,,,0.00,WeatherCatV1.21B27,2013-09-13 07:52:00,
2013-09-13 00:57:00,62.1,55.8,29.84,NE,46,0.0,0.0,80,0.00,,,0.00,WeatherCatV1.21B27,2013-09-13 07:57:00,
2013-09-13 01:02:00,62.0,55.1,29.84,NE,44,0.0,1.0,78,0.00,,,0.00,WeatherCatV1.21B27,2013-09-13 08:02:00,
2013-09-13 01:07:00,61.9,54.2,29.84,NE,42,0.0,1.0,76,0.00,,,0.00,WeatherCatV1.21B27,2013-09-13 08:07:00,
2013-09-13 01:12:00,61.7,48.5,29.84,NE,42,0.0,0.0,62,0.00,,,0.00,WeatherCatV1.21B27,2013-09-13 08:12:00,
2013-09-13 01:17:00,62.0,46.1,29.84,NE,46,0.0,0.0,56,0.00,,,0.00,WeatherCatV1.21B27,2013-09-13 08:17:00,
2013-09-13 01:22:00,62.7,51.2,29.84,NE,46,0.0,0.0,66,0.00,,,0.00,WeatherCatV1.21B27,2013-09-13 08:22:00,
2013-09-13 01:27:00,63.3,53.7,29.84,ENE,78,0.0,0.0,71,0.00,,,0.00,WeatherCatV1.21B27,2013-09-13 08:27:00,
2013-09-13 01:32:00,63.6,54.0,29.84,ENE,78,0.0,0.0,71,0.00,,,0.00,WeatherCatV1.21B27,2013-09-13 08:32:00,
2013-09-13 01:37:00,63.7,54.1,29.84,ENE,78,0.0,0.0,71,0.00,,,0.00,WeatherCatV1.21B27,2013-09-13 08:37:00,
2013-09-13 01:42:00,63.8,53.4,29.84,ENE,78,0.0,0.0,69,0.00,,,0.00,WeatherCatV1.21B27,2013-09-13 08:42:00,
2013-09-13 01:47:00,63.8,53.0,29.84,ENE,78,0.0,0.0,68,0.00,,,0.00,WeatherCatV1.21B27,2013-09-13 08:47:00,
2013-09-13 01:52:00,63.7,52.1,29.84,ENE,78,0.0,0.0,66,0.00,,,0.00,WeatherCatV1.21B27,2013-09-13 08:52:00,
2013-09-13 01:57:00,63.6,51.6,29.84,ENE,78,0.0,0.0,65,0.00,,,0.00,WeatherCatV1.21B27,2013-09-13 08:57:00,
2013-09-13 02:02:00,63.5,50.2,29.84,ENE,78,0.0,0.0,62,0.00,,,0.00,WeatherCatV1.21B27,2013-09-13 09:02:00,
2013-09-13 02:07:00,63.5,48.9,29.84,ENE,78,0.0,0.0,59,0.00,,,0.00,WeatherCatV1.21B27,2013-09-13 09:07:00,
2013-09-13 02:12:00,63.5,46.5,29.84,ENE,78,0.0,0.0,54,0.00,,,0.00,WeatherCatV1.21B27,2013-09-13 09:12:00,
2013-09-13 02:17:00,63.6,47.6,29.83,ENE,78,0.0,0.0,56,0.00,,,0.00,WeatherCatV1.21B27,2013-09-13 09:17:00,
2013-09-13 02:22:00,63.7,47.7,29.83,ENE,78,0.0,0.0,56,0.00,,,0.00,WeatherCatV1.21B27,2013-09-13 09:22:00,
2013-09-13 02:27:00,63.7,48.2,29.83,ENE,78,0.0,0.0,57,0.00,,,0.00,WeatherCatV1.21B27,2013-09-13 09:27:00,
2013-09-13 02:32:00,63.8,48.3,29.83,ENE,78,0.0,0.0,57,0.00,,,0.00,WeatherCatV1.21B27,2013-09-13 09:32:00,
2013-09-13 02:37:00,63.8,47.8,29.83,ENE,78,0.0,0.0,56,0.00,,,0.00,WeatherCatV1.21B27,2013-09-13 09:37:00,
2013-09-13 02:42:00,63.8,47.8,29.83,ENE,78,0.0,0.0,56,0.00,,,0.00,WeatherCatV1.21B27,2013-09-13 09:42:00,
2013-09-13 02:47:00,63.9,48.8,29.83,ENE,78,0.0,0.0,58,0.00,,,0.00,WeatherCatV1.21B27,2013-09-13 09:47:00,
2013-09-13 02:52:00,63.9,48.8,29.83,ENE,78,0.0,0.0,58,0.00,,,0.00,WeatherCatV1.21B27,2013-09-13 09:52:00,
2013-09-13 02:57:00,63.9,48.8,29.83,ENE,78,0.0,0.0,58,0.00,,,0.00,WeatherCatV1.21B27,2013-09-13 09:57:00,
2013-09-13 03:02:00,63.8,48.3,29.83,ENE,78,0.0,0.0,57,0.00,,,0.00,WeatherCatV1.21B27,2013-09-13 10:02:00,
2013-09-13 03:07:00,63.7,48.2,29.83,ENE,78,0.0,0.0,57,0.00,,,0.00,WeatherCatV1.21B27,2013-09-13 10:07:00,
2013-09-13 03:12:00,63.5,48.0,29.83,ENE,78,0.0,0.0,57,0.00,,,0.00,WeatherCatV1.21B27,2013-09-13 10:12:00,
2013-09-13 03:17:00,63.4,48.8,29.82,ENE,78,0.0,0.0,59,0.00,,,0.00,WeatherCatV1.21B27,2013-09-13 10:17:00,
2013-09-13 03:22:00,63.3,48.7,29.82,ENE,78,0.0,0.0,59,0.00,,,0.00,WeatherCatV1.21B27,2013-09-13 10:22:00,
2013-09-13 03:27:00,63.2,48.6,29.82,ENE,78,0.0,0.0,59,0.00,,,0.00,WeatherCatV1.21B27,2013-09-13 10:27:00,
2013-09-13 03:32:00,63.1,48.5,29.82,ENE,78,0.0,0.0,59,0.00,,,0.00,WeatherCatV1.21B27,2013-09-13 10:32:00,
2013-09-13 03:37:00,62.9,48.3,29.82,ENE,78,0.0,0.0,59,0.00,,,0.00,WeatherCatV1.21B27,2013-09-13 10:37:00,
2013-09-13 03:42:00,62.8,49.2,29.82,ENE,78,0.0,0.0,61,0.00,,,0.00,WeatherCatV1.21B27,2013-09-13 10:42:00,
2013-09-13 03:47:00,62.7,49.5,29.82,ENE,78,0.0,0.0,62,0.00,,,0.00,WeatherCatV1.21B27,2013-09-13 10:47:00,
2013-09-13 03:52:00,62.5,49.3,29.82,ENE,78,0.0,0.0,62,0.00,,,0.00,WeatherCatV1.21B27,2013-09-13 10:52:00,
2013-09-13 03:57:00,62.3,49.1,29.82,ENE,78,0.0,0.0,62,0.00,,,0.00,WeatherCatV1.21B27,2013-09-13 10:57:00,
2013-09-13 04:02:00,62.1,48.9,29.81,ENE,78,0.0,0.0,62,0.00,,,0.00,WeatherCatV1.21B27,2013-09-13 11:02:00,
2013-09-13 04:07:00,61.9,48.7,29.81,ENE,78,0.0,0.0,62,0.00,,,0.00,WeatherCatV1.21B27,2013-09-13 11:07:00,
2013-09-13 04:12:00,61.7,49.0,29.81,ENE,78,0.0,0.0,63,0.00,,,0.00,WeatherCatV1.21B27,2013-09-13 11:12:00,
2013-09-13 04:17:00,61.6,48.9,29.81,ENE,78,0.0,0.0,63,0.00,,,0.00,WeatherCatV1.21B27,2013-09-13 11:17:00,
2013-09-13 04:22:00,61.5,48.8,29.81,ENE,78,0.0,0.0,63,0.00,,,0.00,WeatherCatV1.21B27,2013-09-13 11:22:00,
2013-09-13 04:27:00,61.3,48.6,29.81,ENE,78,0.0,0.0,63,0.00,,,0.00,WeatherCatV1.21B27,2013-09-13 11:27:00,
2013-09-13 04:32:00,61.2,48.9,29.81,ENE,78,0.0,0.0,64,0.00,,,0.00,WeatherCatV1.21B27,2013-09-13 11:32:00,
2013-09-13 04:37:00,60.9,48.6,29.81,ENE,78,0.0,1.0,64,0.00,,,0.00,WeatherCatV1.21B27,2013-09-13 11:37:00,
2013-09-13 04:42:00,60.7,48.0,29.81,ENE,78,0.0,0.0,63,0.00,,,0.00,WeatherCatV1.21B27,2013-09-13 11:42:00,
2013-09-13 04:47:00,60.5,48.3,29.81,ENE,78,0.0,0.0,64,0.00,,,0.00,WeatherCatV1.21B27,2013-09-13 11:47:00,
2013-09-13 04:52:00,60.3,48.5,29.81,ENE,78,0.0,1.0,65,0.00,,,0.00,WeatherCatV1.21B27,2013-09-13 11:52:00,
2013-09-13 04:57:00,60.1,48.3,29.81,NNE,29,1.0,1.0,65,0.00,,,0.00,WeatherCatV1.21B27,2013-09-13 11:57:00,
2013-09-13 05:02:00,60.0,48.6,29.81,NNE,15,0.0,1.0,66,0.00,,,0.00,WeatherCatV1.21B27,2013-09-13 12:02:00,
2013-09-13 05:07:00,60.2,48.0,29.81,North,2,0.0,0.0,64,0.00,,,0.00,WeatherCatV1.21B27,2013-09-13 12:07:00,
2013-09-13 05:12:00,60.7,47.6,29.81,North,6,0.0,1.0,62,0.00,,,0.00,WeatherCatV1.21B27,2013-09-13 12:12:00,
2013-09-13 05:17:00,61.5,48.4,29.80,ESE,116,1.0,1.0,62,0.00,,,0.00,WeatherCatV1.21B27,2013-09-13 12:17:00,
2013-09-13 05:22:00,61.8,51.1,29.80,ESE,109,0.0,1.0,68,0.00,,,0.00,WeatherCatV1.21B27,2013-09-13 12:22:00,
2013-09-13 05:27:00,61.6,49.3,29.80,ESE,109,0.0,0.0,64,0.00,,,0.00,WeatherCatV1.21B27,2013-09-13 12:27:00,
2013-09-13 05:32:00,61.5,49.2,29.80,ESE,109,0.0,0.0,64,0.00,,,0.00,WeatherCatV1.21B27,2013-09-13 12:32:00,
2013-09-13 05:37:00,61.4,48.7,29.80,ESE,109,0.0,0.0,63,0.00,,,0.00,WeatherCatV1.21B27,2013-09-13 12:37:00,
2013-09-13 05:42:00,61.5,49.6,29.80,ESE,109,0.0,0.0,65,0.00,,,0.00,WeatherCatV1.21B27,2013-09-13 12:42:00,
2013-09-13 05:47:00,61.2,51.3,29.81,ESE,109,0.0,0.0,70,0.00,,,0.00,WeatherCatV1.21B27,2013-09-13 12:47:00,
2013-09-13 05:52:00,60.7,51.6,29.81,ESE,109,0.0,0.0,72,0.00,,,0.00,WeatherCatV1.21B27,2013-09-13 12:52:00,
2013-09-13 05:57:00,59.4,51.8,29.81,NE,48,0.0,2.0,76,0.00,,,0.00,WeatherCatV1.21B27,2013-09-13 12:57:00,
2013-09-13 06:02:00,58.3,52.2,29.80,NE,48,0.0,1.0,80,0.00,,,0.00,WeatherCatV1.21B27,2013-09-13 13:02:00,
2013-09-13 06:07:00,57.5,52.0,29.80,NE,48,1.0,1.0,82,0.00,,,0.00,WeatherCatV1.21B27,2013-09-13 13:07:00,
2013-09-13 06:12:00,56.8,52.0,29.80,NNE,27,1.0,2.0,84,0.00,,,0.00,WeatherCatV1.21B27,2013-09-13 13:12:00,
2013-09-13 06:17:00,56.3,52.2,29.80,NNW,335,0.0,2.0,86,0.00,,,0.00,WeatherCatV1.21B27,2013-09-13 13:17:00,
2013-09-13 06:22:00,55.9,51.8,29.80,NNW,335,0.0,1.0,86,0.00,,,0.00,WeatherCatV1.21B27,2013-09-13 13:22:00,
2013-09-13 06:27:00,55.7,51.3,29.80,North,355,1.0,2.0,85,0.00,,,0.00,WeatherCatV1.21B27,2013-09-13 13:27:00,
2013-09-13 06:32:00,55.7,51.6,29.80,North,356,0.0,1.0,86,0.00,,,0.00,WeatherCatV1.21B27,2013-09-13 13:32:00,
2013-09-13 06:37:00,55.7,51.9,29.80,North,6,0.0,1.0,87,0.00,,,0.00,WeatherCatV1.21B27,2013-09-13 13:37:00,
2013-09-13 06:42:00,55.6,51.2,29.80,North,6,0.0,0.0,85,0.00,,,0.00,WeatherCatV1.21B27,2013-09-13 13:42:00,
2013-09-13 06:47:00,55.8,51.4,29.80,North,6,0.0,0.0,85,0.00,,,0.00,WeatherCatV1.21B27,2013-09-13 13:47:00,
2013-09-13 06:52:00,55.9,51.5,29.80,North,6,0.0,0.0,85,0.00,,,0.00,WeatherCatV1.21B27,2013-09-13 13:52:00,
2013-09-13 06:57:00,56.1,51.0,29.80,North,6,0.0,0.0,83,0.00,,,0.00,WeatherCatV1.21B27,2013-09-13 13:57:00,
2013-09-13 07:02:00,56.4,51.0,29.81,North,6,0.0,0.0,82,0.00,,,0.00,WeatherCatV1.21B27,2013-09-13 14:02:00,
2013-09-13 07:07:00,56.6,50.5,29.81,North,6,0.0,0.0,80,0.00,,,0.00,WeatherCatV1.21B27,2013-09-13 14:07:00,
2013-09-13 07:12:00,56.8,50.4,29.81,North,6,0.0,0.0,79,0.00,,,0.00,WeatherCatV1.21B27,2013-09-13 14:12:00,
2013-09-13 07:17:00,57.1,50.7,29.81,North,6,0.0,0.0,79,0.00,,,0.00,WeatherCatV1.21B27,2013-09-13 14:17:00,
2013-09-13 07:22:00,57.4,50.9,29.81,North,6,0.0,0.0,79,0.00,,,0.00,WeatherCatV1.21B27,2013-09-13 14:22:00,
2013-09-13 07:27:00,57.7,50.9,29.81,North,6,0.0,1.0,78,0.00,,,0.00,WeatherCatV1.21B27,2013-09-13 14:27:00,
2013-09-13 07:32:00,58.1,50.9,29.81,North,6,0.0,0.0,77,0.00,,,0.00,WeatherCatV1.21B27,2013-09-13 14:32:00,
2013-09-13 07:37:00,58.4,51.6,29.81,North,6,0.0,0.0,78,0.00,,,0.00,WeatherCatV1.21B27,2013-09-13 14:37:00,
2013-09-13 07:42:00,58.9,52.0,29.81,North,6,0.0,0.0,78,0.00,,,0.00,WeatherCatV1.21B27,2013-09-13 14:42:00,
2013-09-13 07:47:00,59.4,52.5,29.81,North,6,0.0,0.0,78,0.00,,,0.00,WeatherCatV1.21B27,2013-09-13 14:47:00,
2013-09-13 07:52:00,59.8,52.9,29.81,North,6,0.0,0.0,78,0.00,,,0.00,WeatherCatV1.21B27,2013-09-13 14:52:00,
2013-09-13 07:57:00,60.1,52.9,29.81,North,6,0.0,0.0,77,0.00,,,0.00,WeatherCatV1.21B27,2013-09-13 14:57:00,
2013-09-13 08:02:00,60.3,53.1,29.81,North,6,0.0,0.0,77,0.00,,,0.00,WeatherCatV1.21B27,2013-09-13 15:02:00,
2013-09-13 08:07:00,60.6,53.3,29.81,North,6,0.0,0.0,77,0.00,,,0.00,WeatherCatV1.21B27,2013-09-13 15:07:00,
2013-09-13 08:12:00,60.9,53.6,29.81,North,6,0.0,0.0,77,0.00,,,0.00,WeatherCatV1.21B27,2013-09-13 15:12:00,
2013-09-13 08:17:00,61.3,54.0,29.81,SE,131,0.0,1.0,77,0.00,,,0.00,WeatherCatV1.21B27,2013-09-13 15:17:00,
2013-09-13 08:22:00,61.6,54.0,29.81,SE,131,0.0,1.0,76,0.00,,,0.00,WeatherCatV1.21B27,2013-09-13 15:22:00,
2013-09-13 08:27:00,61.8,53.8,29.81,SE,131,0.0,0.0,75,0.00,,,0.00,WeatherCatV1.21B27,2013-09-13 15:27:00,
2013-09-13 08:32:00,62.1,54.4,29.80,SE,137,0.0,0.0,76,0.00,,,0.00,WeatherCatV1.21B27,2013-09-13 15:32:00,
2013-09-13 08:37:00,62.5,54.8,29.80,SSE,148,0.0,0.0,76,0.00,,,0.00,WeatherCatV1.21B27,2013-09-13 15:37:00,
2013-09-13 08:42:00,62.7,54.3,29.80,SSE,156,0.0,0.0,74,0.00,,,0.00,WeatherCatV1.21B27,2013-09-13 15:42:00,
2013-09-13 08:47:00,62.7,53.9,29.81,SSE,156,0.0,0.0,73,0.00,,,0.00,WeatherCatV1.21B27,2013-09-13 15:47:00,
2013-09-13 08:52:00,62.7,53.9,29.81,SSE,156,0.0,0.0,73,0.00,,,0.00,WeatherCatV1.21B27,2013-09-13 15:52:00,
2013-09-13 08:57:00,62.8,54.0,29.81,SSE,156,0.0,0.0,73,0.00,,,0.00,WeatherCatV1.21B27,2013-09-13 15:57:00,
2013-09-13 09:02:00,62.9,54.1,29.81,SSE,156,0.0,0.0,73,0.00,,,0.00,WeatherCatV1.21B27,2013-09-13 16:02:00,
2013-09-13 09:07:00,63.1,54.3,29.81,SSE,156,0.0,1.0,73,0.00,,,0.00,WeatherCatV1.21B27,2013-09-13 16:07:00,
2013-09-13 09:12:00,63.3,54.9,29.81,SSE,156,1.0,2.0,74,0.00,,,0.00,WeatherCatV1.21B27,2013-09-13 16:12:00,
2013-09-13 09:17:00,63.6,55.2,29.81,SSE,156,0.0,1.0,74,0.00,,,0.00,WeatherCatV1.21B27,2013-09-13 16:17:00,
2013-09-13 09:22:00,63.7,54.9,29.81,SSE,156,0.0,1.0,73,0.00,,,0.00,WeatherCatV1.21B27,2013-09-13 16:22:00,
2013-09-13 09:27:00,63.9,55.1,29.81,SSE,156,1.0,1.0,73,0.00,,,0.00,WeatherCatV1.21B27,2013-09-13 16:27:00,
2013-09-13 09:32:00,64.1,55.3,29.81,SSE,156,1.0,1.0,73,0.00,,,0.00,WeatherCatV1.21B27,2013-09-13 16:32:00,
2013-09-13 09:37:00,64.4,55.5,29.81,SSE,156,1.0,1.0,73,0.00,,,0.00,WeatherCatV1.21B27,2013-09-13 16:37:00,
2013-09-13 09:42:00,64.8,55.5,29.81,SSE,155,0.0,1.0,72,0.00,,,0.00,WeatherCatV1.21B27,2013-09-13 16:42:00,
2013-09-13 09:47:00,65.1,55.8,29.81,SSE,155,1.0,1.0,72,0.00,,,0.00,WeatherCatV1.21B27,2013-09-13 16:47:00,
2013-09-13 09:52:00,65.4,55.7,29.81,SSE,148,0.0,2.0,71,0.00,,,0.00,WeatherCatV1.21B27,2013-09-13 16:52:00,
2013-09-13 09:57:00,65.7,56.0,29.81,SSE,148,0.0,2.0,71,0.00,,,0.00,WeatherCatV1.21B27,2013-09-13 16:57:00,
2013-09-13 10:02:00,65.9,56.6,29.81,SSE,148,0.0,2.0,72,0.00,,,0.00,WeatherCatV1.21B27,2013-09-13 17:02:00,
2013-09-13 10:07:00,66.2,56.5,29.81,SSE,148,0.0,1.0,71,0.00,,,0.00,WeatherCatV1.21B27,2013-09-13 17:07:00,
2013-09-13 10:12:00,66.5,56.8,29.81,SSE,148,0.0,0.0,71,0.00,,,0.00,WeatherCatV1.21B27,2013-09-13 17:12:00,
2013-09-13 10:17:00,66.9,57.2,29.81,SSE,156,0.0,2.0,71,0.00,,,0.00,WeatherCatV1.21B27,2013-09-13 17:17:00,
2013-09-13 10:22:00,67.2,57.1,29.81,SSE,152,0.0,1.0,70,0.00,,,0.00,WeatherCatV1.21B27,2013-09-13 17:22:00,
2013-09-13 10:27:00,67.6,57.1,29.81,SSE,153,0.0,1.0,69,0.00,,,0.00,WeatherCatV1.21B27,2013-09-13 17:27:00,
2013-09-13 10:32:00,68.0,57.8,29.81,SSE,153,1.0,1.0,70,0.00,,,0.00,WeatherCatV1.21B27,2013-09-13 17:32:00,
2013-09-13 10:37:00,68.6,58.0,29.81,SSE,152,0.0,1.0,69,0.00,,,0.00,WeatherCatV1.21B27,2013-09-13 17:37:00,
2013-09-13 10:42:00,69.0,58.0,29.81,SSE,153,1.0,2.0,68,0.00,,,0.00,WeatherCatV1.21B27,2013-09-13 17:42:00,
2013-09-13 10:47:00,69.6,58.2,29.80,SSE,153,0.0,0.0,67,0.00,,,0.00,WeatherCatV1.21B27,2013-09-13 17:47:00,
2013-09-13 10:52:00,70.1,58.2,29.80,SSE,152,0.0,1.0,66,0.00,,,0.00,WeatherCatV1.21B27,2013-09-13 17:52:00,
2013-09-13 10:57:00,70.6,58.2,29.80,SSE,152,0.0,1.0,65,0.00,,,0.00,WeatherCatV1.21B27,2013-09-13 17:57:00,
2013-09-13 11:02:00,71.3,58.5,29.80,SSE,153,1.0,2.0,64,0.00,,,0.00,WeatherCatV1.21B27,2013-09-13 18:02:00,
2013-09-13 11:07:00,71.9,59.0,29.80,SSE,167,0.0,1.0,64,0.00,,,0.00,WeatherCatV1.21B27,2013-09-13 18:07:00,
2013-09-13 11:12:00,72.5,58.7,29.80,SE,145,0.0,2.0,62,0.00,,,0.00,WeatherCatV1.21B27,2013-09-13 18:12:00,
2013-09-13 11:17:00,73.0,59.2,29.80,SSE,152,0.0,2.0,62,0.00,,,0.00,WeatherCatV1.21B27,2013-09-13 18:17:00,
2013-09-13 11:22:00,73.7,58.9,29.80,SE,142,0.0,2.0,60,0.00,,,0.00,WeatherCatV1.21B27,2013-09-13 18:22:00,
2013-09-13 11:27:00,74.1,59.3,29.80,SE,145,0.0,1.0,60,0.00,,,0.00,WeatherCatV1.21B27,2013-09-13 18:27:00,
2013-09-13 11:32:00,74.5,59.2,29.80,SE,145,0.0,1.0,59,0.00,,,0.00,WeatherCatV1.21B27,2013-09-13 18:32:00,
2013-09-13 11:37:00,74.9,59.1,29.80,SE,145,0.0,2.0,58,0.00,,,0.00,WeatherCatV1.21B27,2013-09-13 18:37:00,
2013-09-13 11:42:00,75.2,59.9,29.80,SSE,152,0.0,0.0,59,0.00,,,0.00,WeatherCatV1.21B27,2013-09-13 18:42:00,
2013-09-13 11:47:00,75.9,59.5,29.80,SSE,152,0.0,2.0,57,0.00,,,0.00,WeatherCatV1.21B27,2013-09-13 18:47:00,
2013-09-13 11:52:00,76.1,59.7,29.80,SSE,152,2.0,2.0,57,0.00,,,0.00,WeatherCatV1.21B27,2013-09-13 18:52:00,
2013-09-13 11:57:00,76.6,59.7,29.80,SSE,152,0.0,1.0,56,0.00,,,0.00,WeatherCatV1.21B27,2013-09-13 18:57:00,
2013-09-13 12:02:00,77.3,57.2,29.80,North,355,1.0,3.0,50,0.00,,,0.00,WeatherCatV1.21B27,2013-09-13 19:02:00,
2013-09-13 12:07:00,77.3,56.1,29.80,ENE,69,1.0,3.0,48,0.00,,,0.00,WeatherCatV1.21B27,2013-09-13 19:07:00,
2013-09-13 12:12:00,77.9,59.4,29.80,SSE,168,0.0,2.0,53,0.00,,,0.00,WeatherCatV1.21B27,2013-09-13 19:12:00,
2013-09-13 12:17:00,78.5,60.5,29.80,SSE,154,0.0,2.0,54,0.00,,,0.00,WeatherCatV1.21B27,2013-09-13 19:17:00,
2013-09-13 12:22:00,78.9,60.3,29.80,SSE,154,0.0,2.0,53,0.00,,,0.00,WeatherCatV1.21B27,2013-09-13 19:22:00,
2013-09-13 12:27:00,78.9,59.2,29.80,South,177,0.0,5.0,51,0.00,,,0.00,WeatherCatV1.21B27,2013-09-13 19:27:00,
2013-09-13 12:32:00,78.8,59.7,29.79,SSE,150,0.0,1.0,52,0.00,,,0.00,WeatherCatV1.21B27,2013-09-13 19:32:00,
2013-09-13 12:37:00,78.7,60.1,29.79,East,95,1.0,1.0,53,0.00,,,0.00,WeatherCatV1.21B27,2013-09-13 19:37:00,
2013-09-13 12:42:00,79.0,59.8,29.79,SSE,153,1.0,2.0,52,0.00,,,0.00,WeatherCatV1.21B27,2013-09-13 19:42:00,
2013-09-13 12:47:00,79.6,60.4,29.78,SSE,153,1.0,2.0,52,0.00,,,0.00,WeatherCatV1.21B27,2013-09-13 19:47:00,
2013-09-13 12:52:00,80.1,60.3,29.78,SSE,158,0.0,2.0,51,0.00,,,0.00,WeatherCatV1.21B27,2013-09-13 19:52:00,
2013-09-13 12:57:00,80.0,60.2,29.78,SE,129,0.0,1.0,51,0.00,,,0.00,WeatherCatV1.21B27,2013-09-13 19:57:00,
2013-09-13 13:02:00,80.2,61.0,29.78,SE,144,0.0,2.0,52,0.00,,,0.00,WeatherCatV1.21B27,2013-09-13 20:02:00,
2013-09-13 13:07:00,80.6,60.2,29.78,NNW,340,0.0,1.0,50,0.00,,,0.00,WeatherCatV1.21B27,2013-09-13 20:07:00,
2013-09-13 13:12:00,80.8,60.4,29.78,NE,35,0.0,1.0,50,0.00,,,0.00,WeatherCatV1.21B27,2013-09-13 20:12:00,
2013-09-13 13:17:00,81.0,60.6,29.78,ESE,117,1.0,2.0,50,0.00,,,0.00,WeatherCatV1.21B27,2013-09-13 20:17:00,
2013-09-13 13:22:00,81.1,60.1,29.78,SE,142,0.0,1.0,49,0.00,,,0.00,WeatherCatV1.21B27,2013-09-13 20:22:00,
2013-09-13 13:27:00,81.1,60.1,29.78,SSE,153,2.0,3.0,49,0.00,,,0.00,WeatherCatV1.21B27,2013-09-13 20:27:00,
2013-09-13 13:32:00,80.8,60.4,29.77,SSE,167,2.0,3.0,50,0.00,,,0.00,WeatherCatV1.21B27,2013-09-13 20:32:00,
2013-09-13 13:37:00,80.7,60.9,29.77,SSE,157,0.0,2.0,51,0.00,,,0.00,WeatherCatV1.21B27,2013-09-13 20:37:00,
2013-09-13 13:42:00,80.6,60.8,29.77,SSE,154,0.0,0.0,51,0.00,,,0.00,WeatherCatV1.21B27,2013-09-13 20:42:00,
2013-09-13 13:47:00,80.6,60.2,29.77,SE,131,1.0,2.0,50,0.00,,,0.00,WeatherCatV1.21B27,2013-09-13 20:47:00,
2013-09-13 13:52:00,80.6,60.2,29.77,SE,138,0.0,3.0,50,0.00,,,0.00,WeatherCatV1.21B27,2013-09-13 20:52:00,
2013-09-13 13:57:00,81.1,60.1,29.77,ESE,122,2.0,2.0,49,0.00,,,0.00,WeatherCatV1.21B27,2013-09-13 20:57:00,
2013-09-13 14:02:00,81.3,60.9,29.76,SE,134,0.0,2.0,50,0.00,,,0.00,WeatherCatV1.21B27,2013-09-13 21:02:00,
2013-09-13 14:07:00,81.2,60.2,29.76,SSE,156,0.0,2.0,49,0.00,,,0.00,WeatherCatV1.21B27,2013-09-13 21:07:00,
2013-09-13 14:12:00,81.1,60.1,29.76,SSE,160,0.0,1.0,49,0.00,,,0.00,WeatherCatV1.21B27,2013-09-13 21:12:00,
2013-09-13 14:17:00,81.1,60.1,29.76,SSE,157,1.0,3.0,49,0.00,,,0.00,WeatherCatV1.21B27,2013-09-13 21:17:00,
2013-09-13 14:22:00,81.0,60.0,29.76,SSE,147,2.0,2.0,49,0.00,,,0.00,WeatherCatV1.21B27,2013-09-13 21:22:00,
2013-09-13 14:27:00,80.9,59.3,29.76,SE,142,1.0,2.0,48,0.00,,,0.00,WeatherCatV1.21B27,2013-09-13 21:27:00,
2013-09-13 14:32:00,80.9,59.9,29.76,SSE,148,1.0,2.0,49,0.00,,,0.00,WeatherCatV1.21B27,2013-09-13 21:32:00,
2013-09-13 14:37:00,80.9,59.9,29.76,SE,144,0.0,2.0,49,0.00,,,0.00,WeatherCatV1.21B27,2013-09-13 21:37:00,
2013-09-13 14:42:00,81.0,53.0,29.76,NNW,328,5.0,9.0,38,0.00,,,0.00,WeatherCatV1.21B27,2013-09-13 21:42:00,
2013-09-13 14:47:00,81.3,58.5,29.76,SE,139,0.0,4.0,46,0.00,,,0.00,WeatherCatV1.21B27,2013-09-13 21:47:00,
2013-09-13 14:52:00,81.5,52.7,29.76,NNE,21,1.0,2.0,37,0.00,,,0.00,WeatherCatV1.21B27,2013-09-13 21:52:00,
2013-09-13 14:57:00,81.8,51.4,29.76,NW,323,5.0,5.0,35,0.00,,,0.00,WeatherCatV1.21B27,2013-09-13 21:57:00,
2013-09-13 15:02:00,82.1,56.7,29.76,ESE,115,0.0,2.0,42,0.00,,,0.00,WeatherCatV1.21B27,2013-09-13 22:02:00,
2013-09-13 15:07:00,82.0,51.6,29.76,NNW,333,0.0,5.0,35,0.00,,,0.00,WeatherCatV1.21B27,2013-09-13 22:07:00,
2013-09-13 15:12:00,82.0,53.1,29.76,East,96,0.0,3.0,37,0.00,,,0.00,WeatherCatV1.21B27,2013-09-13 22:12:00,
2013-09-13 15:17:00,82.0,51.6,29.75,North,350,2.0,8.0,35,0.00,,,0.00,WeatherCatV1.21B27,2013-09-13 22:17:00,
2013-09-13 15:22:00,82.0,54.6,29.75,NNE,32,0.0,1.0,39,0.00,,,0.00,WeatherCatV1.21B27,2013-09-13 22:22:00,
2013-09-13 15:27:00,82.2,52.6,29.75,SSW,197,2.0,6.0,36,0.00,,,0.00,WeatherCatV1.21B27,2013-09-13 22:27:00,
2013-09-13 15:32:00,82.3,51.9,29.75,North,350,1.0,1.0,35,0.00,,,0.00,WeatherCatV1.21B27,2013-09-13 22:32:00,
2013-09-13 15:37:00,82.0,51.6,29.75,ENE,69,0.0,1.0,35,0.00,,,0.00,WeatherCatV1.21B27,2013-09-13 22:37:00,
2013-09-13 15:42:00,82.1,51.7,29.75,ESE,123,1.0,2.0,35,0.00,,,0.00,WeatherCatV1.21B27,2013-09-13 22:42:00,
2013-09-13 15:47:00,82.2,51.0,29.75,SSE,167,2.0,2.0,34,0.00,,,0.00,WeatherCatV1.21B27,2013-09-13 22:47:00,
2013-09-13 15:52:00,82.0,49.2,29.75,NNW,343,0.0,11.0,32,0.00,,,0.00,WeatherCatV1.21B27,2013-09-13 22:52:00,
2013-09-13 15:57:00,81.8,49.0,29.75,NNW,334,0.0,2.0,32,0.00,,,0.00,WeatherCatV1.21B27,2013-09-13 22:57:00,
2013-09-13 16:02:00,81.6,48.9,29.75,NNW,335,5.0,6.0,32,0.00,,,0.00,WeatherCatV1.21B27,2013-09-13 23:02:00,
2013-09-13 16:07:00,81.6,48.9,29.75,NW,325,0.0,5.0,32,0.00,,,0.00,WeatherCatV1.21B27,2013-09-13 23:07:00,
2013-09-13 16:12:00,81.5,47.9,29.75,North,358,0.0,3.0,31,0.00,,,0.00,WeatherCatV1.21B27,2013-09-13 23:12:00,
2013-09-13 16:17:00,81.5,47.0,29.75,NNW,345,2.0,2.0,30,0.00,,,0.00,WeatherCatV1.21B27,2013-09-13 23:17:00,
2013-09-13 16:22:00,81.4,47.8,29.75,SSE,156,0.0,3.0,31,0.00,,,0.00,WeatherCatV1.21B27,2013-09-13 23:22:00,
2013-09-13 16:27:00,81.3,47.8,29.75,NW,318,3.0,4.0,31,0.00,,,0.00,WeatherCatV1.21B27,2013-09-13 23:27:00,
2013-09-13 16:32:00,81.1,48.4,29.75,NNW,345,0.0,2.0,32,0.00,,,0.00,WeatherCatV1.21B27,2013-09-13 23:32:00,
2013-09-13 16:37:00,80.8,49.8,29.75,NNW,332,2.0,5.0,34,0.00,,,0.00,WeatherCatV1.21B27,2013-09-13 23:37:00,
2013-09-13 16:42:00,80.5,49.5,29.75,NE,47,0.0,1.0,34,0.00,,,0.00,WeatherCatV1.21B27,2013-09-13 23:42:00,
2013-09-13 16:47:00,80.3,48.5,29.75,North,6,3.0,3.0,33,0.00,,,0.00,WeatherCatV1.21B27,2013-09-13 23:47:00,
2013-09-13 16:52:00,80.3,49.3,29.75,North,4,1.0,4.0,34,0.00,,,0.00,WeatherCatV1.21B27,2013-09-13 23:52:00,
2013-09-13 16:57:00,80.2,49.3,29.75,North,4,0.0,4.0,34,0.00,,,0.00,WeatherCatV1.21B27,2013-09-13 23:57:00,
2013-09-13 17:02:00,80.0,48.3,29.74,North,4,0.0,4.0,33,0.00,,,0.00,WeatherCatV1.21B27,2013-09-14 00:02:00,
2013-09-13 17:07:00,79.9,47.4,29.74,East,79,1.0,1.0,32,0.00,,,0.00,WeatherCatV1.21B27,2013-09-14 00:07:00,
2013-09-13 17:12:00,79.8,46.5,29.74,NNW,335,1.0,3.0,31,0.00,,,0.00,WeatherCatV1.21B27,2013-09-14 00:12:00,
2013-09-13 17:17:00,79.6,46.3,29.74,NNW,329,6.0,8.0,31,0.00,,,0.00,WeatherCatV1.21B27,2013-09-14 00:17:00,
2013-09-13 17:22:00,79.3,46.0,29.74,NNW,346,0.0,1.0,31,0.00,,,0.00,WeatherCatV1.21B27,2013-09-14 00:22:00,
2013-09-13 17:27:00,79.1,46.7,29.74,NNW,337,2.0,2.0,32,0.00,,,0.00,WeatherCatV1.21B27,2013-09-14 00:27:00,
2013-09-13 17:32:00,78.7,46.3,29.74,NNE,23,0.0,6.0,32,0.00,,,0.00,WeatherCatV1.21B27,2013-09-14 00:32:00,
2013-09-13 17:37:00,78.3,46.8,29.74,NNW,335,4.0,4.0,33,0.00,,,0.00,WeatherCatV1.21B27,2013-09-14 00:37:00,
2013-09-13 17:42:00,77.9,44.8,29.74,ESE,121,0.0,5.0,31,0.00,,,0.00,WeatherCatV1.21B27,2013-09-14 00:42:00,
2013-09-13 17:47:00,77.6,44.5,29.73,NNW,332,1.0,1.0,31,0.00,,,0.00,WeatherCatV1.21B27,2013-09-14 00:47:00,
2013-09-13 17:52:00,77.3,45.9,29.73,NNW,341,1.0,4.0,33,0.00,,,0.00,WeatherCatV1.21B27,2013-09-14 00:52:00,
2013-09-13 17:57:00,77.0,46.5,29.73,NNE,15,1.0,5.0,34,0.00,,,0.00,WeatherCatV1.21B27,2013-09-14 00:57:00,
2013-09-13 18:02:00,76.6,48.4,29.73,NNE,21,0.0,2.0,37,0.00,,,0.00,WeatherCatV1.21B27,2013-09-14 01:02:00,
2013-09-13 18:07:00,76.3,48.1,29.73,NNW,340,0.0,1.0,37,0.00,,,0.00,WeatherCatV1.21B27,2013-09-14 01:07:00,
2013-09-13 18:12:00,76.0,47.8,29.73,NNW,337,1.0,2.0,37,0.00,,,0.00,WeatherCatV1.21B27,2013-09-14 01:12:00,
2013-09-13 18:17:00,75.6,48.2,29.73,NNW,341,0.0,1.0,38,0.00,,,0.00,WeatherCatV1.21B27,2013-09-14 01:17:00,
2013-09-13 18:22:00,75.3,48.6,29.73,NNW,341,0.0,2.0,39,0.00,,,0.00,WeatherCatV1.21B27,2013-09-14 01:22:00,
2013-09-13 18:27:00,74.8,49.5,29.73,NNW,343,2.0,3.0,41,0.00,,,0.00,WeatherCatV1.21B27,2013-09-14 01:27:00,
2013-09-13 18:32:00,74.4,49.2,29.73,NNW,335,1.0,1.0,41,0.00,,,0.00,WeatherCatV1.21B27,2013-09-14 01:32:00,
2013-09-13 18:37:00,74.0,48.1,29.73,NNW,335,0.0,0.0,40,0.00,,,0.00,WeatherCatV1.21B27,2013-09-14 01:37:00,
2013-09-13 18:42:00,73.7,48.5,29.73,NNW,334,0.0,0.0,41,0.00,,,0.00,WeatherCatV1.21B27,2013-09-14 01:42:00,
2013-09-13 18:47:00,73.4,46.9,29.73,NW,326,0.0,1.0,39,0.00,,,0.00,WeatherCatV1.21B27,2013-09-14 01:47:00,
2013-09-13 18:52:00,73.1,46.0,29.73,NW,318,5.0,5.0,38,0.00,,,0.00,WeatherCatV1.21B27,2013-09-14 01:52:00,
2013-09-13 18:57:00,72.9,45.8,29.73,North,7,0.0,0.0,38,0.00,,,0.00,WeatherCatV1.21B27,2013-09-14 01:57:00,
2013-09-13 19:02:00,72.6,44.8,29.73,NNW,335,2.0,3.0,37,0.00,,,0.00,WeatherCatV1.21B27,2013-09-14 02:02:00,
2013-09-13 19:07:00,72.5,45.4,29.73,NNW,327,4.0,4.0,38,0.00,,,0.00,WeatherCatV1.21B27,2013-09-14 02:07:00,
2013-09-13 19:12:00,72.3,44.6,29.73,NNW,345,2.0,3.0,37,0.00,,,0.00,WeatherCatV1.21B27,2013-09-14 02:12:00,
2013-09-13 19:17:00,72.2,43.0,29.72,NNW,329,2.0,4.0,35,0.00,,,0.00,WeatherCatV1.21B27,2013-09-14 02:17:00,
2013-09-13 19:22:00,72.1,42.2,29.72,NNW,340,1.0,6.0,34,0.00,,,0.00,WeatherCatV1.21B27,2013-09-14 02:22:00,
2013-09-13 19:27:00,72.2,42.3,29.72,NW,308,5.0,5.0,34,0.00,,,0.00,WeatherCatV1.21B27,2013-09-14 02:27:00,
2013-09-13 19:32:00,72.2,41.5,29.72,NNW,335,1.0,4.0,33,0.00,,,0.00,WeatherCatV1.21B27,2013-09-14 02:32:00,
2013-09-13 19:37:00,72.2,39.9,29.72,NNW,337,0.0,4.0,31,0.00,,,0.00,WeatherCatV1.21B27,2013-09-14 02:37:00,
2013-09-13 19:42:00,72.4,40.0,29.72,North,352,1.0,7.0,31,0.00,,,0.00,WeatherCatV1.21B27,2013-09-14 02:42:00,
2013-09-13 19:47:00,72.5,40.1,29.72,NNW,345,1.0,2.0,31,0.00,,,0.00,WeatherCatV1.21B27,2013-09-14 02:47:00,
2013-09-13 19:52:00,72.6,39.4,29.72,NNW,335,0.0,3.0,30,0.00,,,0.00,WeatherCatV1.21B27,2013-09-14 02:52:00,
2013-09-13 19:57:00,72.7,39.5,29.72,NNW,332,3.0,4.0,30,0.00,,,0.00,WeatherCatV1.21B27,2013-09-14 02:57:00,
2013-09-13 20:02:00,72.7,39.5,29.72,North,359,3.0,6.0,30,0.00,,,0.00,WeatherCatV1.21B27,2013-09-14 03:02:00,
2013-09-13 20:07:00,72.7,38.6,29.72,NW,323,4.0,5.0,29,0.00,,,0.00,WeatherCatV1.21B27,2013-09-14 03:07:00,
2013-09-13 20:12:00,72.8,38.7,29.72,NNW,333,4.0,6.0,29,0.00,,,0.00,WeatherCatV1.21B27,2013-09-14 03:12:00,
2013-09-13 20:17:00,72.8,38.7,29.73,NNW,340,1.0,7.0,29,0.00,,,0.00,WeatherCatV1.21B27,2013-09-14 03:17:00,
2013-09-13 20:22:00,72.7,37.7,29.73,North,352,2.0,6.0,28,0.00,,,0.00,WeatherCatV1.21B27,2013-09-14 03:22:00,
2013-09-13 20:27:00,72.7,37.7,29.73,North,5,2.0,4.0,28,0.00,,,0.00,WeatherCatV1.21B27,2013-09-14 03:27:00,
2013-09-13 20:32:00,72.8,36.9,29.73,NNW,337,3.0,4.0,27,0.00,,,0.00,WeatherCatV1.21B27,2013-09-14 03:32:00,
2013-09-13 20:37:00,73.0,37.0,29.73,NNW,345,4.0,7.0,27,0.00,,,0.00,WeatherCatV1.21B27,2013-09-14 03:37:00,
2013-09-13 20:42:00,73.1,36.2,29.73,NNW,341,2.0,4.0,26,0.00,,,0.00,WeatherCatV1.21B27,2013-09-14 03:42:00,
2013-09-13 20:47:00,73.3,35.3,29.73,NW,317,4.0,7.0,25,0.00,,,0.00,WeatherCatV1.21B27,2013-09-14 03:47:00,
2013-09-13 20:52:00,73.4,35.4,29.73,North,354,3.0,7.0,25,0.00,,,0.00,WeatherCatV1.21B27,2013-09-14 03:52:00,
2013-09-13 20:57:00,73.7,34.7,29.73,NNW,335,3.0,4.0,24,0.00,,,0.00,WeatherCatV1.21B27,2013-09-14 03:57:00,
2013-09-13 21:01:00,73.9,33.8,29.73,NNW,331,3.0,7.0,23,0.00,,,0.00,WeatherCatV1.21B27,2013-09-14 04:01:00,
2013-09-13 21:02:00,74.0,33.8,29.73,NNW,340,4.0,4.0,23,0.00,,,0.00,WeatherCatV1.21B27,2013-09-14 04:02:00,
2013-09-13 21:07:00,74.0,33.8,29.73,NNW,333,0.0,4.0,23,0.00,,,0.00,WeatherCatV1.21B27,2013-09-14 04:07:00,
2013-09-13 21:12:00,74.0,33.8,29.73,NNW,337,3.0,9.0,23,0.00,,,0.00,WeatherCatV1.21B27,2013-09-14 04:12:00,
2013-09-13 21:17:00,73.9,33.8,29.73,North,358,1.0,6.0,23,0.00,,,0.00,WeatherCatV1.21B27,2013-09-14 04:17:00,
2013-09-13 21:22:00,73.7,32.5,29.73,North,349,1.0,3.0,22,0.00,,,0.00,WeatherCatV1.21B27,2013-09-14 04:22:00,
2013-09-13 21:27:00,73.8,32.6,29.73,NNW,328,1.0,3.0,22,0.00,,,0.00,WeatherCatV1.21B27,2013-09-14 04:27:00,
2013-09-13 21:32:00,73.8,32.6,29.73,North,6,1.0,3.0,22,0.00,,,0.00,WeatherCatV1.21B27,2013-09-14 04:32:00,
2013-09-13 21:37:00,73.8,32.6,29.73,NNW,332,1.0,3.0,22,0.00,,,0.00,WeatherCatV1.21B27,2013-09-14 04:37:00,
2013-09-13 21:42:00,73.8,32.6,29.73,NNW,345,2.0,2.0,22,0.00,,,0.00,WeatherCatV1.21B27,2013-09-14 04:42:00,
2013-09-13 21:47:00,73.8,32.6,29.73,NNW,337,0.0,3.0,22,0.00,,,0.00,WeatherCatV1.21B27,2013-09-14 04:47:00,
2013-09-13 21:52:00,73.8,31.4,29.73,NNW,330,1.0,3.0,21,0.00,,,0.00,WeatherCatV1.21B27,2013-09-14 04:52:00,
2013-09-13 21:57:00,73.7,31.3,29.73,NNW,337,0.0,0.0,21,0.00,,,0.00,WeatherCatV1.21B27,2013-09-14 04:57:00,
2013-09-13 22:02:00,73.5,32.3,29.73,NNW,337,0.0,0.0,22,0.00,,,0.00,WeatherCatV1.21B27,2013-09-14 05:02:00,
2013-09-13 22:07:00,73.1,32.0,29.73,NNW,337,0.0,0.0,22,0.00,,,0.00,WeatherCatV1.21B27,2013-09-14 05:07:00,
2013-09-13 22:12:00,72.9,31.8,29.73,NNW,337,0.0,0.0,22,0.00,,,0.00,WeatherCatV1.21B27,2013-09-14 05:12:00,
2013-09-13 22:17:00,72.6,32.7,29.73,NNW,337,0.0,0.0,23,0.00,,,0.00,WeatherCatV1.21B27,2013-09-14 05:17:00,
2013-09-13 22:22:00,72.5,32.6,29.73,NNW,337,0.0,0.0,23,0.00,,,0.00,WeatherCatV1.21B27,2013-09-14 05:22:00,
2013-09-13 22:27:00,72.4,32.5,29.73,NNW,337,0.0,0.0,23,0.00,,,0.00,WeatherCatV1.21B27,2013-09-14 05:27:00,
2013-09-13 22:32:00,72.2,33.4,29.73,NNW,337,0.0,0.0,24,0.00,,,0.00,WeatherCatV1.21B27,2013-09-14 05:32:00,
2013-09-13 22:37:00,72.0,33.2,29.73,NNW,337,0.0,0.0,24,0.00,,,0.00,WeatherCatV1.21B27,2013-09-14 05:37:00,
2013-09-13 22:42:00,71.9,33.1,29.73,NNW,337,0.0,0.0,24,0.00,,,0.00,WeatherCatV1.21B27,2013-09-14 05:42:00,
2013-09-13 22:47:00,71.7,33.0,29.73,North,352,2.0,2.0,24,0.00,,,0.00,WeatherCatV1.21B27,2013-09-14 05:47:00,
2013-09-13 22:52:00,71.6,32.9,29.73,North,352,0.0,0.0,24,0.00,,,0.00,WeatherCatV1.21B27,2013-09-14 05:52:00,
2013-09-13 22:57:00,71.5,31.8,29.73,North,352,0.0,2.0,23,0.00,,,0.00,WeatherCatV1.21B27,2013-09-14 05:57:00,
2013-09-13 23:02:00,71.6,31.8,29.73,NNW,333,0.0,0.0,23,0.00,,,0.00,WeatherCatV1.21B27,2013-09-14 06:02:00,
2013-09-13 23:07:00,71.7,33.0,29.73,NNW,331,1.0,3.0,24,0.00,,,0.00,WeatherCatV1.21B27,2013-09-14 06:07:00,
2013-09-13 23:12:00,71.9,32.1,29.73,NNW,335,3.0,3.0,23,0.00,,,0.00,WeatherCatV1.21B27,2013-09-14 06:12:00,
2013-09-13 23:17:00,72.0,32.2,29.73,North,4,1.0,2.0,23,0.00,,,0.00,WeatherCatV1.21B27,2013-09-14 06:17:00,
2013-09-13 23:22:00,72.2,32.3,29.73,NNW,333,2.0,4.0,23,0.00,,,0.00,WeatherCatV1.21B27,2013-09-14 06:22:00,
2013-09-13 23:27:00,72.4,33.6,29.73,NNW,333,1.0,3.0,24,0.00,,,0.00,WeatherCatV1.21B27,2013-09-14 06:27:00,
2013-09-13 23:32:00,72.5,32.6,29.73,NNW,329,0.0,2.0,23,0.00,,,0.00,WeatherCatV1.21B27,2013-09-14 06:32:00,
2013-09-13 23:37:00,72.6,31.6,29.73,NNW,335,0.0,2.0,22,0.00,,,0.00,WeatherCatV1.21B27,2013-09-14 06:37:00,
2013-09-13 23:42:00,72.8,31.7,29.73,NNW,333,0.0,3.0,22,0.00,,,0.00,WeatherCatV1.21B27,2013-09-14 06:42:00,
2013-09-13 23:47:00,72.9,30.7,29.73,NNE,27,1.0,2.0,21,0.00,,,0.00,WeatherCatV1.21B27,2013-09-14 06:47:00,
2013-09-13 23:52:00,73.0,30.8,29.73,NNE,27,0.0,0.0,21,0.00,,,0.00,WeatherCatV1.21B27,2013-09-14 06:52:00,
2013-09-13 23:57:00,72.6,43.4,29.73,East,86,0.0,1.0,35,0.00,,,0.00,WeatherCatV1.21B27,2013-09-14 06:57:00,